Pigeon, MI (48755)

4:18 AM EDT on September 22, 2014 (GMT -0400)
Sand Point | Change Station
CLOSE
Current Station
Personal Weather Station
Location: Sand Point, MI
Elevation: 598 ft
Nearby Weather Stations

Elev 598 ft 43.91 °N, 83.38 °W | Updated 3 minutes ago

Overcast
Overcast
49.4 °F
Feels Like 46 °F
N
7.0
Wind Variable Wind from NW
Gusts 7.0 mph

Today
High -- | Low -- °F
--% Chance of Precip.
Yesterday
High -- | Low -- °F
Precip. -- in
7:20 AM 7:30 PM
Waning Crescent, 3% visible
Pressure 30.04 in
Visibility 10.0 miles
Clouds Overcast 3300 ft
Windchill 46 °F
Dew Point 42 °F
Humidity 76%
Rainfall 0.00 in
Snow Depth Not available.
UV 0.0 out of 12
Pollen .50 out of 12
Ozone Good
PM2.5 Good
Flu Activity Not available.
METAR KBAX 220817Z AUTO 33009KT 10SM OVC033 09/05 A3004 RMK AO2 T00860050

More Conditions Fewer Conditions

Pressure 30.04 in
Visibility 10.0 miles
Clouds Overcast 3300 ft
Windchill 46 °F
Dew Point 42 °F
Humidity 76%
Rainfall 0.00 in
Snow Depth Not available.
UV 0.0 out of 12
Pollen .50 out of 12
Ozone Good
PM2.5 Good
Flu Activity Not available.
METAR KBAX 220817Z AUTO 33009KT 10SM OVC033 09/05 A3004 RMK AO2 T00860050

More Conditions Fewer Conditions

10-Day Weather Forecast

Almanac

Astronomy

Sep. 22, 2014 Rise Set
Actual Time 7:20 AM EDT 7:30 PM EDT
Civil Twilight 6:51 AM EDT 7:59 PM EDT
Nautical Twilight 6:17 AM EDT 8:32 PM EDT
Astronomical Twilight 5:43 AM EDT 9:07 PM EDT
Moon 5:45 AM EDT 6:38 PM EDT
Length of Visible Light 13h 07m
Length of Day
12h 10m
Tomorrow will be 3m 0s shorter.
Waning Crescent, 3% of the Moon is Illuminated
Today
Waning Crescent
Sep 24
New
Oct 1
First Quarter
Oct 8
Full
Oct 15
Last Quarter

Today's Extremes

State Highs State Lows

Community

WunderPhotos

Upload Photos

1,755,395 photos uploaded!

Nearby

Air Quality

  Air Quality AQ Index Pollutant
Yesterday Good
OZONE
Yesterday Good
PM2.5
Current Good
OZONE
Current Good
PM2.5
Monday Good
OZONE
Monday Good
PM2.5

Snow Depth

Station Depth Elevation
No new snow has been reported.

Earthquake Activity

City Distance Mag. Time & Date
No recent earthquake activity has been reported nearby.
Minimum magnitude displayed is 2.5.

Coastal Water Temperatures

Place Temperature
Harbor Beach, MI 55.9 °F

Nearby Weather Stations